Home   Weather   France   Metz   Past weeks
Flag for France

Past Weather in Metz, Moselle, France — Yesterday and Last 2 Weeks

Currently: 34 °F. Fog. (Weather station: Metz-Nancy-Lorraine, France). See more current weather

Past Weather in Metz — Graph

°F

Metz Temperature Yesterday

Maximum temperature yesterday: 36 °F (at 2:00 pm)
Minimum temperature yesterday: 25 °F (at 5:30 am)
Average temperature yesterday: 30 °F

High & Low Weather Summary for the Past Weeks

 TemperatureHumidityPressure
High45 °F (Jan 15, 3:30 pm)100% (Jan 17, 5:30 am)30.54 "Hg (Jan 17, 5:30 am)
Low25 °F (Jan 29, 5:30 am)60% (Jan 18, 2:30 pm)28.94 "Hg (Jan 16, 2:00 pm)
Average33 °F88%30.03 "Hg
* Reported Jan 15 8:00 am — Jan 30 8:00 am, Metz. Weather by CustomWeather, © 2023

Note: Actual official high and low records may vary slightly from our data, if they occured in-between our weather recording intervals... More about our weather records

Metz Weather History for the Previous 24 Hours

Scroll right to see more
 ConditionsComfort  
Time TempWeatherWind HumidityBarometerVisibility
8:00 am
Mon, Jan 30
32 °FLow clouds.20 mph100%30.21 "Hg4 mi
7:00 am32 °FLight freezing rain. Ice fog.21 mph93%30.21 "Hg2 mi
6:30 am32 °FLow clouds.20 mph93%30.21 "Hg4 mi
6:00 am32 °FLight freezing rain. Ice fog.18 mph93%30.21 "Hg3 mi
5:30 am32 °FIce fog.17 mph93%30.21 "Hg3 mi
5:00 am32 °FMostly cloudy.16 mph87%30.21 "Hg4 mi
4:30 am32 °FMostly cloudy.15 mph87%30.24 "Hg4 mi
4:00 am32 °FOvercast.15 mph87%30.24 "Hg4 mi
3:30 am32 °FMostly cloudy.15 mph87%30.24 "Hg4 mi
3:00 am32 °FPassing clouds.15 mph87%30.24 "Hg4 mi
2:30 am30 °FMostly cloudy.13 mph93%30.27 "Hg4 mi
2:00 am30 °FOvercast.13 mph93%30.27 "Hg4 mi
12:30 am30 °FOvercast.9 mph86%30.27 "Hg4 mi
12:00 am30 °FOvercast.13 mph86%30.30 "Hg4 mi
11:00 pm
Sun, Jan 29
28 °FOvercast.13 mph86%30.30 "Hg4 mi
10:30 pm28 °FOvercast.12 mph86%30.30 "Hg4 mi
10:00 pm28 °FPassing clouds.8 mph86%30.33 "Hg4 mi
9:30 pm28 °FPassing clouds.6 mph86%30.33 "Hg4 mi
9:00 pm28 °FClear.8 mph86%30.33 "Hg5 mi
8:30 pm30 °FClear.9 mph80%30.33 "Hg6 mi
8:00 pm30 °FClear.7 mph80%30.33 "Hg10 mi
7:00 pm30 °FClear.5 mph80%30.33 "Hg10 mi
6:30 pm32 °FClear.7 mph80%30.33 "Hg10 mi
6:00 pm30 °FClear.3 mph80%30.30 "Hg10 mi
5:00 pm34 °FSunny.5 mph75%30.33 "Hg10 mi
4:30 pm36 °FSunny.6 mph65%30.33 "Hg10 mi
4:00 pm36 °FPartly sunny.5 mph65%30.33 "HgN/A
3:00 pm36 °FPassing clouds.5 mph65%30.33 "HgN/A
2:30 pm36 °FSunny.3 mph65%30.33 "Hg10 mi
2:00 pm36 °FPartly sunny.3 mph65%30.33 "HgN/A
1:00 pm34 °FPassing clouds.2 mph70%30.36 "HgN/A
12:30 pm32 °FPartly sunny.2 mph75%30.39 "HgN/A
12:00 pm32 °FScattered clouds.3 mph75%30.39 "HgN/A
11:30 am32 °FSunny.2 mph69%30.39 "Hg10 mi
11:00 am30 °FSunny.3 mph80%30.39 "Hg10 mi
10:30 am32 °FSunny.2 mph75%30.39 "Hg10 mi
10:00 am30 °FSunny.No wind80%30.39 "Hg10 mi
9:30 am27 °FSunny.2 mph86%30.42 "Hg10 mi
9:00 am25 °FSunny.1 mph86%30.39 "Hg10 mi
Weather by CustomWeather, © 2023

See weather overview